Time;durP1;ratioP1;P1;durP2;ratioP2;P2;SDS_P1;SDS_P2;PMS_P1;PMS_P2;Temp;Humidity;BMP_temperature;BMP_pressure;BME280_temperature;BME280_humidity;BME280_pressure;Samples;Min_cycle;Max_cycle;Signal;HPM_P1;HPM_P2
2022/06/14 00:03:06;;;;;;;;;;;12.50;99.90;;;;;;5108848;28;19920;-84
2022/06/14 00:05:31;;;;;;;;;;;12.40;99.90;;;;;;5090553;28;20239;-83
2022/06/14 00:07:57;;;;;;;;;;;12.40;99.90;;;;;;5045198;28;19920;-83
2022/06/14 00:10:22;;;;;;;;;;;12.40;99.90;;;;;;5093362;28;19920;-82
2022/06/14 00:12:48;;;;;;;;;;;12.40;99.90;;;;;;5078707;28;20011;-82
2022/06/14 00:15:14;;;;;;;;;;;12.30;99.90;;;;;;5028955;28;19924;-82
2022/06/14 00:17:40;;;;;;;;;;;12.30;99.90;;;;;;5059350;28;19924;-82
2022/06/14 00:20:06;;;;;;;;;;;12.30;99.90;;;;;;5092784;28;20427;-81
2022/06/14 00:22:32;;;;;;;;;;;12.30;99.90;;;;;;5092117;28;19970;-89
2022/06/14 00:24:58;;;;;;;;;;;12.20;99.90;;;;;;5112542;28;19924;-82
2022/06/14 00:27:23;;;;;;;;;;;12.20;99.90;;;;;;5046530;28;19921;-81
2022/06/14 00:29:49;;;;;;;;;;;12.20;99.90;;;;;;5093441;28;20403;-82
2022/06/14 00:32:14;;;;;;;;;;;12.10;99.90;;;;;;5045375;28;19963;-81
2022/06/14 00:34:40;;;;;;;;;;;12.10;99.90;;;;;;5029668;28;20003;-82
2022/06/14 00:37:10;;;;;;;;;;;12.00;99.90;;;;;;5044664;28;19920;-82
2022/06/14 00:39:35;;;;;;;;;;;12.00;99.90;;;;;;5078250;28;19920;-81
2022/06/14 00:42:01;;;;;;;;;;;11.90;99.90;;;;;;5061882;28;20426;-81
2022/06/14 00:44:28;;;;;;;;;;;11.90;99.90;;;;;;5045306;28;19920;-82
2022/06/14 00:46:59;;;;;;;;;;;11.90;99.90;;;;;;5078655;28;20036;-81
2022/06/14 00:49:30;;;;;;;;;;;11.80;99.90;;;;;;5061776;28;19920;-82
2022/06/14 00:52:01;;;;;;;;;;;11.80;99.90;;;;;;5078332;28;19920;-81
2022/06/14 00:54:31;;;;;;;;;;;11.80;99.90;;;;;;5061630;28;19920;-82
2022/06/14 00:57:18;;;;;;;;;;;11.80;99.90;;;;;;5061305;28;19927;-82
2022/06/14 00:59:46;;;;;;;;;;;11.80;99.90;;;;;;5077234;28;19927;-83
2022/06/14 01:02:44;;;;;;;;;;;11.80;99.90;;;;;;5077445;28;19920;-83
2022/06/14 01:05:13;;;;;;;;;;;11.80;99.90;;;;;;5017255;28;19977;-83
2022/06/14 01:07:41;;;;;;;;;;;11.80;99.90;;;;;;5061000;28;20010;-83
2022/06/14 01:10:14;;;;;;;;;;;11.90;99.90;;;;;;5060031;28;19975;-82
2022/06/14 01:12:42;;;;;;;;;;;11.90;99.90;;;;;;5077451;28;20309;-83
2022/06/14 01:15:17;;;;;;;;;;;11.90;99.90;;;;;;5074556;28;19990;-83
2022/06/14 01:17:50;;;;;;;;;;;11.80;99.90;;;;;;5077265;28;19921;-83
2022/06/14 01:20:17;;;;;;;;;;;11.80;99.90;;;;;;5109726;28;19920;-83
2022/06/14 01:22:43;;;;;;;;;;;11.80;99.90;;;;;;5058953;28;19931;-83
2022/06/14 01:25:09;;;;;;;;;;;11.80;99.90;;;;;;5087427;28;19920;-83
2022/06/14 01:27:35;;;;;;;;;;;11.80;99.90;;;;;;5073454;28;20298;-83
2022/06/14 01:30:13;;;;;;;;;;;11.60;99.90;;;;;;5076810;28;20051;-83
2022/06/14 01:33:00;;;;;;;;;;;11.60;99.90;;;;;;5075578;28;20253;-84
2022/06/14 01:35:27;;;;;;;;;;;11.60;99.90;;;;;;5090828;28;20046;-82
2022/06/14 01:37:54;;;;;;;;;;;11.50;99.90;;;;;;5093633;28;19947;-83
2022/06/14 01:40:23;;;;;;;;;;;11.50;99.90;;;;;;5077268;28;19974;-83
2022/06/14 01:43:12;;;;;;;;;;;11.50;99.90;;;;;;5067760;28;20372;-83
2022/06/14 01:45:52;;;;;;;;;;;11.50;99.90;;;;;;5053882;28;19929;-82
2022/06/14 01:48:21;;;;;;;;;;;11.40;99.90;;;;;;5090368;28;19932;-83
2022/06/14 01:53:39;;;;;;;;;;;11.30;99.90;;;;;;5090526;28;20272;-83
2022/06/14 01:56:08;;;;;;;;;;;11.30;99.90;;;;;;5098698;28;19920;-83
2022/06/14 01:58:42;;;;;;;;;;;11.30;99.90;;;;;;5076909;28;20008;-83
2022/06/14 02:01:08;;;;;;;;;;;11.30;99.90;;;;;;5093763;28;20283;-83
2022/06/14 02:06:28;;;;;;;;;;;11.20;99.90;;;;;;5110013;28;20417;-83
2022/06/14 02:09:07;;;;;;;;;;;11.10;99.90;;;;;;5076189;28;19920;-83
2022/06/14 02:11:34;;;;;;;;;;;11.10;99.90;;;;;;5092730;28;19920;-83
2022/06/14 02:14:06;;;;;;;;;;;11.00;99.90;;;;;;5071953;28;20245;-83
2022/06/14 02:16:47;;;;;;;;;;;11.00;99.90;;;;;;5056509;28;19927;-83
2022/06/14 02:19:19;;;;;;;;;;;11.00;99.90;;;;;;5062900;28;19931;-83
2022/06/14 02:22:13;;;;;;;;;;;11.00;99.90;;;;;;5076061;28;20013;-84
2022/06/14 02:24:46;;;;;;;;;;;11.00;99.90;;;;;;5079371;28;19920;-82
2022/06/14 02:27:11;;;;;;;;;;;10.90;99.90;;;;;;5092783;28;19951;-83
2022/06/14 02:29:39;;;;;;;;;;;10.90;99.90;;;;;;5075154;28;19920;-83
2022/06/14 02:32:14;;;;;;;;;;;10.80;99.90;;;;;;5075979;28;19920;-83
2022/06/14 02:34:46;;;;;;;;;;;10.80;99.90;;;;;;5075313;28;19931;-84
2022/06/14 02:37:15;;;;;;;;;;;10.80;99.90;;;;;;5072387;28;19928;-83
2022/06/14 02:40:01;;;;;;;;;;;10.70;99.90;;;;;;5055765;28;19968;-83
2022/06/14 02:42:35;;;;;;;;;;;10.70;99.90;;;;;;5077288;28;20406;-83
2022/06/14 02:45:06;;;;;;;;;;;10.70;99.90;;;;;;5092464;28;19924;-82
2022/06/14 02:47:31;;;;;;;;;;;10.60;99.90;;;;;;5058488;28;20467;-82
2022/06/14 02:50:00;;;;;;;;;;;10.60;99.90;;;;;;5089011;28;20027;-82
2022/06/14 02:52:29;;;;;;;;;;;10.60;99.90;;;;;;5107512;28;19927;-83
2022/06/14 02:54:57;;;;;;;;;;;10.60;99.90;;;;;;5075578;28;19927;-83
2022/06/14 02:57:26;;;;;;;;;;;10.50;99.90;;;;;;5064186;28;19924;-82
2022/06/14 02:59:55;;;;;;;;;;;10.40;99.90;;;;;;5039158;28;19971;-83
2022/06/14 03:02:31;;;;;;;;;;;10.40;99.90;;;;;;5055578;28;19932;-83
2022/06/14 03:05:23;;;;;;;;;;;10.40;99.90;;;;;;5056672;28;20007;-83
2022/06/14 03:07:52;;;;;;;;;;;10.30;99.90;;;;;;5076196;28;19923;-83
2022/06/14 03:10:17;;;;;;;;;;;10.30;99.90;;;;;;5092423;28;19920;-83
2022/06/14 03:13:02;;;;;;;;;;;10.30;99.90;;;;;;5075289;28;20307;-83
2022/06/14 03:15:33;;;;;;;;;;;10.30;99.90;;;;;;5075474;28;19920;-83
2022/06/14 03:17:59;;;;;;;;;;;10.20;99.90;;;;;;5067454;28;19931;-83
2022/06/14 03:20:34;;;;;;;;;;;10.20;99.90;;;;;;5074940;28;19920;-83
2022/06/14 03:23:05;;;;;;;;;;;10.20;99.90;;;;;;5090709;28;19920;-83
2022/06/14 03:25:39;;;;;;;;;;;10.10;99.90;;;;;;5058446;28;19974;-82
2022/06/14 03:28:07;;;;;;;;;;;10.10;99.90;;;;;;5073101;28;19926;-82
2022/06/14 03:30:41;;;;;;;;;;;10.10;99.90;;;;;;5054873;28;20007;-84
2022/06/14 03:33:11;;;;;;;;;;;10.00;99.90;;;;;;5070122;28;19936;-83
2022/06/14 03:35:40;;;;;;;;;;;10.10;99.90;;;;;;5079800;28;19932;-82
2022/06/14 03:38:17;;;;;;;;;;;10.10;99.90;;;;;;5091550;28;19924;-83
2022/06/14 03:40:43;;;;;;;;;;;10.10;99.90;;;;;;5056549;28;19928;-83
2022/06/14 03:43:09;;;;;;;;;;;10.00;99.90;;;;;;5083950;28;19920;-83
2022/06/14 03:45:41;;;;;;;;;;;10.10;99.90;;;;;;5057915;28;19926;-82
2022/06/14 03:48:07;;;;;;;;;;;10.10;99.90;;;;;;5058594;28;19927;-83
2022/06/14 03:50:53;;;;;;;;;;;10.10;99.90;;;;;;5074579;28;19920;-83
2022/06/14 03:53:48;;;;;;;;;;;10.10;99.90;;;;;;5027460;28;19920;-83
2022/06/14 03:56:20;;;;;;;;;;;10.10;99.90;;;;;;5043903;28;19965;-83
2022/06/14 03:58:46;;;;;;;;;;;10.10;99.90;;;;;;5074806;28;20275;-83
2022/06/14 04:01:15;;;;;;;;;;;10.10;99.90;;;;;;5091383;28;20003;-83
2022/06/14 04:03:43;;;;;;;;;;;10.20;99.90;;;;;;5090717;28;19926;-83
2022/06/14 04:06:38;;;;;;;;;;;10.20;99.90;;;;;;5073890;28;19927;-83
2022/06/14 04:09:07;;;;;;;;;;;10.20;99.90;;;;;;5059145;28;19927;-82
2022/06/14 04:11:36;;;;;;;;;;;10.20;99.90;;;;;;5079704;28;19925;-83
2022/06/14 04:14:20;;;;;;;;;;;10.20;99.90;;;;;;5088289;28;19921;-83
2022/06/14 04:17:09;;;;;;;;;;;10.30;99.90;;;;;;5098414;28;19921;-83
2022/06/14 04:19:34;;;;;;;;;;;10.30;99.90;;;;;;5057972;28;19996;-83
2022/06/14 04:22:19;;;;;;;;;;;10.40;99.90;;;;;;5091390;28;20329;-83
2022/06/14 04:24:44;;;;;;;;;;;10.40;99.90;;;;;;5074710;28;19920;-82
2022/06/14 04:27:28;;;;;;;;;;;10.50;99.90;;;;;;5065503;28;19947;-83
2022/06/14 04:30:08;;;;;;;;;;;10.60;99.90;;;;;;5069184;28;19921;-83
2022/06/14 04:32:39;;;;;;;;;;;10.60;99.90;;;;;;5087894;28;19921;-83
2022/06/14 04:35:12;;;;;;;;;;;10.70;99.90;;;;;;5090577;28;20058;-83
2022/06/14 04:37:44;;;;;;;;;;;10.80;99.90;;;;;;5053282;28;20277;-83
2022/06/14 04:40:12;;;;;;;;;;;10.80;99.90;;;;;;5057577;28;19934;-83
2022/06/14 04:42:40;;;;;;;;;;;10.90;99.90;;;;;;5058346;28;19920;-83
2022/06/14 04:45:15;;;;;;;;;;;10.90;99.90;;;;;;5086632;28;20264;-83
2022/06/14 04:47:53;;;;;;;;;;;10.90;99.90;;;;;;5070941;28;19921;-83
2022/06/14 04:50:24;;;;;;;;;;;10.90;99.90;;;;;;5053657;28;19921;-83
2022/06/14 04:52:55;;;;;;;;;;;11.00;99.90;;;;;;5055052;28;19925;-83
2022/06/14 04:55:28;;;;;;;;;;;11.10;99.90;;;;;;5072355;28;20038;-82
2022/06/14 04:58:13;;;;;;;;;;;11.10;99.90;;;;;;5062239;28;19921;-83
2022/06/14 05:00:56;;;;;;;;;;;11.20;99.90;;;;;;5057984;28;19920;-83
2022/06/14 05:03:35;;;;;;;;;;;11.30;99.90;;;;;;5074140;28;20019;-83
2022/06/14 05:06:10;;;;;;;;;;;11.40;99.90;;;;;;5086960;28;19927;-82
2022/06/14 05:08:39;;;;;;;;;;;11.50;99.90;;;;;;5040097;28;20007;-82
2022/06/14 05:11:08;;;;;;;;;;;11.50;99.90;;;;;;5073391;28;19927;-82
2022/06/14 05:13:42;;;;;;;;;;;11.70;99.90;;;;;;5073894;28;19920;-82
2022/06/14 05:16:10;;;;;;;;;;;11.70;99.90;;;;;;5107691;28;20083;-83
2022/06/14 05:18:42;;;;;;;;;;;11.80;99.90;;;;;;5074851;28;19932;-83
2022/06/14 05:21:11;;;;;;;;;;;11.90;99.90;;;;;;5056490;28;19927;-84
2022/06/14 05:24:05;;;;;;;;;;;12.00;99.90;;;;;;5056816;28;19929;-83
2022/06/14 05:26:34;;;;;;;;;;;12.10;99.90;;;;;;5044915;28;20025;-83
2022/06/14 05:29:21;;;;;;;;;;;12.20;99.90;;;;;;5089038;28;20356;-83
2022/06/14 05:32:04;;;;;;;;;;;12.20;99.90;;;;;;5090967;28;19924;-83
2022/06/14 05:34:38;;;;;;;;;;;12.30;99.90;;;;;;5059626;28;19932;-83
2022/06/14 05:37:10;;;;;;;;;;;12.30;99.90;;;;;;5071187;28;20279;-83
2022/06/14 05:39:41;;;;;;;;;;;12.50;99.90;;;;;;5076265;28;20016;-83
2022/06/14 05:42:29;;;;;;;;;;;12.50;99.90;;;;;;5060358;28;19927;-83
2022/06/14 05:44:58;;;;;;;;;;;12.60;99.90;;;;;;5076440;28;19920;-83
2022/06/14 05:47:27;;;;;;;;;;;12.80;99.90;;;;;;5068269;28;19920;-83
2022/06/14 05:49:58;;;;;;;;;;;12.90;99.90;;;;;;5072169;28;20456;-83
2022/06/14 05:52:31;;;;;;;;;;;13.00;99.90;;;;;;5093683;28;20033;-83
2022/06/14 05:55:09;;;;;;;;;;;13.20;99.90;;;;;;5106475;28;19966;-83
2022/06/14 05:57:47;;;;;;;;;;;13.40;99.90;;;;;;5076307;28;20014;-83
2022/06/14 06:00:18;;;;;;;;;;;13.60;99.90;;;;;;5059111;28;19924;-83
2022/06/14 06:02:50;;;;;;;;;;;13.60;99.90;;;;;;5070957;28;19920;-84
2022/06/14 06:05:16;;;;;;;;;;;13.80;99.90;;;;;;5105674;28;20356;-78
2022/06/14 06:07:44;;;;;;;;;;;13.90;99.90;;;;;;5076426;28;19920;-81
2022/06/14 06:10:22;;;;;;;;;;;13.90;99.90;;;;;;5076355;28;19924;-82
2022/06/14 06:12:53;;;;;;;;;;;14.00;99.90;;;;;;5055976;28;19990;-81
2022/06/14 06:15:22;;;;;;;;;;;14.10;99.90;;;;;;5084768;28;20249;-83
2022/06/14 06:17:56;;;;;;;;;;;14.20;99.90;;;;;;5082362;28;20007;-80
2022/06/14 06:20:28;;;;;;;;;;;14.30;99.90;;;;;;5107968;28;19920;-80
2022/06/14 06:22:53;;;;;;;;;;;14.40;99.90;;;;;;5060051;28;20374;-80
2022/06/14 06:25:26;;;;;;;;;;;14.50;99.90;;;;;;5076855;28;19964;-82
2022/06/14 06:28:07;;;;;;;;;;;14.50;99.90;;;;;;5076347;28;20561;-82
2022/06/14 06:30:42;;;;;;;;;;;14.60;99.90;;;;;;5055547;28;19931;-82
2022/06/14 06:33:10;;;;;;;;;;;14.70;99.90;;;;;;5110324;28;19924;-81
2022/06/14 06:35:46;;;;;;;;;;;14.90;99.90;;;;;;5075385;28;19931;-78
2022/06/14 06:38:19;;;;;;;;;;;14.90;99.90;;;;;;5081744;28;19934;-82
2022/06/14 06:41:49;;;;;;;;;;;14.90;99.90;;;;;;5089872;28;19983;-82
2022/06/14 06:43:35;;;;;;;;;;;14.90;99.90;;;;;;5055940;28;20383;-82
2022/06/14 06:46:01;;;;;;;;;;;14.90;99.90;;;;;;5055940;28;19924;-82
2022/06/14 06:48:36;;;;;;;;;;;15.00;99.90;;;;;;5072051;28;20004;-82
2022/06/14 06:51:05;;;;;;;;;;;15.10;99.90;;;;;;5098548;28;19924;-83
2022/06/14 06:53:41;;;;;;;;;;;15.20;99.90;;;;;;5058033;28;19928;-83
2022/06/14 06:56:13;;;;;;;;;;;15.30;99.90;;;;;;5038897;28;20256;-82
2022/06/14 06:58:46;;;;;;;;;;;15.40;99.90;;;;;;5089410;28;19921;-82
2022/06/14 07:01:19;;;;;;;;;;;15.50;99.90;;;;;;5039343;28;19971;-82
2022/06/14 07:03:46;;;;;;;;;;;15.50;99.90;;;;;;5074831;28;20015;-82
2022/06/14 07:06:15;;;;;;;;;;;15.50;99.90;;;;;;5076004;28;19924;-82
2022/06/14 07:08:45;;;;;;;;;;;15.50;99.90;;;;;;5058956;28;19928;-82
2022/06/14 07:11:15;;;;;;;;;;;15.50;99.90;;;;;;5092382;28;19985;-82
2022/06/14 07:13:47;;;;;;;;;;;15.60;99.90;;;;;;5092294;28;20254;-85
2022/06/14 07:16:16;;;;;;;;;;;15.60;99.90;;;;;;5075921;28;20318;-83
2022/06/14 07:18:46;;;;;;;;;;;15.70;99.90;;;;;;5091306;28;20386;-82
2022/06/14 07:21:15;;;;;;;;;;;15.80;99.90;;;;;;5075847;28;19920;-82
2022/06/14 07:23:46;;;;;;;;;;;15.90;99.90;;;;;;5055281;28;19924;-82
2022/06/14 07:26:15;;;;;;;;;;;16.00;99.90;;;;;;5039195;28;19970;-82
2022/06/14 07:28:40;;;;;;;;;;;16.20;99.90;;;;;;5088885;28;19924;-81
2022/06/14 07:31:08;;;;;;;;;;;16.30;99.90;;;;;;5087228;28;19967;-81
2022/06/14 07:33:35;;;;;;;;;;;16.30;99.90;;;;;;5056043;28;19920;-82
2022/06/14 07:36:03;;;;;;;;;;;16.30;99.90;;;;;;5055208;28;20011;-82
2022/06/14 07:38:33;;;;;;;;;;;16.30;99.90;;;;;;5072246;28;19920;-81
2022/06/14 07:41:02;;;;;;;;;;;16.30;99.90;;;;;;5072452;28;19921;-82
2022/06/14 07:43:36;;;;;;;;;;;16.40;99.90;;;;;;5071802;28;19928;-82
2022/06/14 07:46:06;;;;;;;;;;;16.30;99.90;;;;;;5072375;28;19968;-81
2022/06/14 07:48:36;;;;;;;;;;;16.30;99.90;;;;;;5089153;28;19920;-81
2022/06/14 07:51:11;;;;;;;;;;;16.30;99.90;;;;;;5072270;28;20059;-81
2022/06/14 07:53:39;;;;;;;;;;;16.50;99.90;;;;;;5072066;28;20069;-82
2022/06/14 07:56:07;;;;;;;;;;;16.80;99.90;;;;;;5088966;28;19929;-82
2022/06/14 07:58:40;;;;;;;;;;;16.90;99.90;;;;;;5071835;28;20356;-82
2022/06/14 08:01:12;;;;;;;;;;;16.90;99.90;;;;;;5088978;28;19924;-82
2022/06/14 08:03:50;;;;;;;;;;;16.90;99.90;;;;;;5070916;28;20391;-81
2022/06/14 08:06:19;;;;;;;;;;;16.90;99.90;;;;;;5051612;28;20412;-83
2022/06/14 08:08:46;;;;;;;;;;;17.00;99.90;;;;;;5067644;28;19928;-82
2022/06/14 08:11:30;;;;;;;;;;;17.10;99.90;;;;;;5105158;28;19920;-83
2022/06/14 08:13:59;;;;;;;;;;;17.10;99.90;;;;;;5072850;28;19927;-76
2022/06/14 08:16:25;;;;;;;;;;;17.20;99.90;;;;;;5092059;28;20360;-82
2022/06/14 08:19:00;;;;;;;;;;;17.30;99.90;;;;;;5073853;28;20299;-79
2022/06/14 08:21:41;;;;;;;;;;;17.40;99.90;;;;;;5073857;28;20280;-81
2022/06/14 08:24:08;;;;;;;;;;;17.40;99.90;;;;;;5070078;28;19921;-83
2022/06/14 08:26:40;;;;;;;;;;;17.50;99.90;;;;;;5103826;28;20451;-84
2022/06/14 08:29:25;;;;;;;;;;;17.60;99.90;;;;;;5092245;28;19928;-82
2022/06/14 08:31:56;;;;;;;;;;;17.60;99.90;;;;;;5058765;28;20379;-83
2022/06/14 08:34:25;;;;;;;;;;;17.60;99.90;;;;;;5108789;28;19920;-83
2022/06/14 08:37:03;;;;;;;;;;;17.50;99.90;;;;;;5059445;28;19924;-83
2022/06/14 08:39:34;;;;;;;;;;;17.60;99.90;;;;;;5091924;28;20315;-85
2022/06/14 08:42:08;;;;;;;;;;;17.60;99.90;;;;;;5092615;28;19920;-84
2022/06/14 08:44:54;;;;;;;;;;;17.60;99.90;;;;;;5076975;28;19934;-83
2022/06/14 08:47:43;;;;;;;;;;;17.70;99.90;;;;;;5059716;28;19920;-83
2022/06/14 08:50:10;;;;;;;;;;;17.80;99.90;;;;;;5067971;28;19920;-85
2022/06/14 08:52:39;;;;;;;;;;;17.80;99.90;;;;;;5060520;28;20006;-81
2022/06/14 08:55:23;;;;;;;;;;;17.80;99.90;;;;;;5056085;28;20007;-81
2022/06/14 08:57:49;;;;;;;;;;;17.80;99.90;;;;;;5093696;28;19923;-81
2022/06/14 09:00:29;;;;;;;;;;;17.80;99.90;;;;;;5075198;28;19946;-80
2022/06/14 09:03:08;;;;;;;;;;;17.70;99.90;;;;;;5101037;28;20006;-81
2022/06/14 09:05:52;;;;;;;;;;;17.60;99.90;;;;;;5075703;28;20027;-82
2022/06/14 09:08:30;;;;;;;;;;;17.60;99.90;;;;;;5074469;28;19985;-86
2022/06/14 09:11:11;;;;;;;;;;;17.70;99.90;;;;;;5076348;28;20042;-77
2022/06/14 09:13:55;;;;;;;;;;;17.80;99.90;;;;;;5094131;28;20062;-82
2022/06/14 09:16:36;;;;;;;;;;;17.90;99.90;;;;;;5077704;28;19924;-79
2022/06/14 09:19:38;;;;;;;;;;;17.90;99.90;;;;;;5111304;28;19920;-80
2022/06/14 09:22:08;;;;;;;;;;;18.00;99.90;;;;;;5019548;28;20003;-81
2022/06/14 09:24:49;;;;;;;;;;;18.20;99.90;;;;;;5069816;28;20252;-80
2022/06/14 09:27:24;;;;;;;;;;;18.30;99.90;;;;;;5076944;28;20272;-79
2022/06/14 09:29:50;;;;;;;;;;;18.20;99.90;;;;;;5059098;28;20384;-79
2022/06/14 09:32:18;;;;;;;;;;;18.20;99.90;;;;;;5074927;28;19924;-80
2022/06/14 09:35:02;;;;;;;;;;;18.10;99.90;;;;;;5075458;28;20302;-78
2022/06/14 09:37:31;;;;;;;;;;;18.00;99.90;;;;;;5076282;28;19982;-80
2022/06/14 09:39:57;;;;;;;;;;;18.20;99.90;;;;;;5076457;28;19920;-82
2022/06/14 09:42:22;;;;;;;;;;;18.40;99.90;;;;;;5076261;28;20356;-82
2022/06/14 09:44:54;;;;;;;;;;;18.40;99.90;;;;;;5059314;28;19938;-80
2022/06/14 09:47:32;;;;;;;;;;;18.40;99.90;;;;;;5056588;28;20306;-80
2022/06/14 09:50:10;;;;;;;;;;;18.60;99.90;;;;;;5073862;28;19920;-82
2022/06/14 09:52:54;;;;;;;;;;;18.40;99.90;;;;;;5076496;28;19927;-78
2022/06/14 09:55:38;;;;;;;;;;;18.30;99.90;;;;;;5093837;28;19924;-78
2022/06/14 09:58:13;;;;;;;;;;;18.40;99.90;;;;;;5076926;28;19964;-77
2022/06/14 10:00:42;;;;;;;;;;;18.50;99.90;;;;;;5060286;28;19985;-77
2022/06/14 10:03:13;;;;;;;;;;;18.50;99.90;;;;;;5076451;28;19977;-78
2022/06/14 10:05:48;;;;;;;;;;;18.50;99.90;;;;;;5076258;28;19920;-80
2022/06/14 10:08:16;;;;;;;;;;;18.80;99.90;;;;;;5076086;28;19971;-79
2022/06/14 10:11:00;;;;;;;;;;;18.80;99.90;;;;;;5075801;28;20011;-79
2022/06/14 10:13:26;;;;;;;;;;;18.70;99.90;;;;;;5093334;28;19972;-78
2022/06/14 10:16:11;;;;;;;;;;;18.70;99.90;;;;;;5092839;28;20032;-81
2022/06/14 10:18:45;;;;;;;;;;;18.70;99.90;;;;;;5093974;28;19965;-78
2022/06/14 10:21:17;;;;;;;;;;;18.40;99.90;;;;;;5076708;28;20061;-81
2022/06/14 10:23:54;;;;;;;;;;;18.30;99.90;;;;;;5088749;28;19943;-81
2022/06/14 10:29:07;;;;;;;;;;;18.80;99.90;;;;;;5109941;28;19924;-78
2022/06/14 10:31:53;;;;;;;;;;;19.10;99.90;;;;;;5075986;28;19920;-80
2022/06/14 10:34:45;;;;;;;;;;;19.30;99.90;;;;;;5048293;28;19924;-82
2022/06/14 10:37:30;;;;;;;;;;;19.50;99.90;;;;;;5028004;28;19932;-81
2022/06/14 10:39:58;;;;;;;;;;;19.30;99.90;;;;;;5055536;28;20023;-80
2022/06/14 10:42:43;;;;;;;;;;;19.20;99.90;;;;;;5072319;28;19927;-80
2022/06/14 10:45:34;;;;;;;;;;;19.10;99.90;;;;;;5071854;28;19987;-80
2022/06/14 10:48:00;;;;;;;;;;;19.10;99.90;;;;;;5024788;28;19920;-80
2022/06/14 10:50:26;;;;;;;;;;;19.40;99.90;;;;;;5038305;28;19927;-80
2022/06/14 10:53:01;;;;;;;;;;;19.50;99.90;;;;;;5038545;28;19942;-80
2022/06/14 10:55:45;;;;;;;;;;;19.50;99.90;;;;;;5055301;28;19946;-81
2022/06/14 10:58:11;;;;;;;;;;;19.30;99.90;;;;;;5056097;28;20114;-81
2022/06/14 11:00:43;;;;;;;;;;;19.30;99.90;;;;;;5039632;28;19955;-83
2022/06/14 11:03:18;;;;;;;;;;;19.40;99.90;;;;;;5056152;28;20018;-82
2022/06/14 11:05:46;;;;;;;;;;;19.40;99.90;;;;;;5056368;28;20306;-83
2022/06/14 11:08:24;;;;;;;;;;;19.70;99.90;;;;;;5105916;28;20306;-82
2022/06/14 11:11:08;;;;;;;;;;;20.00;99.90;;;;;;5092883;28;20011;-81
2022/06/14 11:13:44;;;;;;;;;;;19.90;99.90;;;;;;5076311;28;20244;-81
2022/06/14 11:16:13;;;;;;;;;;;19.90;99.90;;;;;;5092300;28;19943;-81
2022/06/14 11:18:45;;;;;;;;;;;20.00;99.90;;;;;;5075193;28;19927;-83
2022/06/14 11:21:26;;;;;;;;;;;19.90;99.90;;;;;;5075649;28;19931;-82
2022/06/14 11:23:58;;;;;;;;;;;20.00;99.90;;;;;;5092928;28;19928;-82
2022/06/14 11:26:31;;;;;;;;;;;20.10;99.90;;;;;;5075748;28;20359;-82
2022/06/14 11:29:01;;;;;;;;;;;19.90;99.90;;;;;;5058485;28;19920;-83
2022/06/14 11:31:43;;;;;;;;;;;19.60;99.90;;;;;;5108805;28;20400;-80
2022/06/14 11:34:38;;;;;;;;;;;19.50;99.90;;;;;;5108943;28;20417;-81
2022/06/14 11:37:10;;;;;;;;;;;19.30;99.90;;;;;;5057025;28;20247;-82
2022/06/14 11:39:44;;;;;;;;;;;19.30;99.90;;;;;;5074307;28;19943;-82
2022/06/14 11:42:22;;;;;;;;;;;19.30;99.90;;;;;;5091726;28;19924;-82
2022/06/14 11:45:05;;;;;;;;;;;19.30;99.90;;;;;;5074851;28;19920;-81
2022/06/14 11:47:34;;;;;;;;;;;19.20;99.90;;;;;;5112200;28;20326;-82
2022/06/14 11:50:06;;;;;;;;;;;19.20;99.90;;;;;;5067450;28;19968;-80
2022/06/14 11:52:35;;;;;;;;;;;19.10;99.90;;;;;;5092791;28;19920;-82
2022/06/14 11:55:20;;;;;;;;;;;19.10;99.90;;;;;;5092552;28;19970;-82
2022/06/14 11:57:46;;;;;;;;;;;19.10;99.90;;;;;;5097537;28;19924;-82
2022/06/14 12:00:23;;;;;;;;;;;19.00;99.90;;;;;;5048216;28;19967;-82
2022/06/14 12:02:57;;;;;;;;;;;19.10;99.90;;;;;;5040939;28;19924;-82
2022/06/14 12:05:32;;;;;;;;;;;19.10;99.90;;;;;;5057297;28;19925;-83
2022/06/14 12:08:05;;;;;;;;;;;19.10;99.90;;;;;;5090777;28;19932;-82
2022/06/14 12:10:49;;;;;;;;;;;19.10;99.90;;;;;;5047087;28;19920;-83
2022/06/14 12:13:20;;;;;;;;;;;19.10;99.90;;;;;;5075738;28;19924;-83
2022/06/14 12:15:50;;;;;;;;;;;19.30;99.90;;;;;;5059700;28;20261;-83
2022/06/14 12:18:18;;;;;;;;;;;20.00;99.90;;;;;;5091255;28;19920;-84
2022/06/14 12:20:52;;;;;;;;;;;20.70;99.90;;;;;;5093929;28;19920;-85
2022/06/14 12:23:41;;;;;;;;;;;21.30;99.90;;;;;;5075894;28;19977;-82
2022/06/14 12:28:57;;;;;;;;;;;22.10;99.90;;;;;;5110163;28;19925;-82
2022/06/14 12:31:35;;;;;;;;;;;22.20;99.90;;;;;;5075827;28;19924;-82
2022/06/14 12:34:05;;;;;;;;;;;22.10;99.90;;;;;;5082597;28;19931;-81
2022/06/14 12:36:54;;;;;;;;;;;21.80;99.90;;;;;;5089001;28;19981;-82
2022/06/14 12:39:22;;;;;;;;;;;22.20;99.90;;;;;;5089182;28;19925;-80
2022/06/14 12:42:03;;;;;;;;;;;22.70;99.90;;;;;;5089208;28;19924;-80
2022/06/14 12:44:41;;;;;;;;;;;22.80;99.90;;;;;;5090111;28;20383;-82
2022/06/14 12:47:12;;;;;;;;;;;23.20;99.90;;;;;;5074200;28;19924;-83
2022/06/14 12:49:43;;;;;;;;;;;23.20;99.90;;;;;;5076211;28;19931;-84
2022/06/14 12:52:11;;;;;;;;;;;23.00;99.90;;;;;;5077289;28;19925;-84
2022/06/14 12:54:56;;;;;;;;;;;22.70;99.00;;;;;;5059130;28;20362;-83
2022/06/14 12:57:35;;;;;;;;;;;22.50;99.90;;;;;;5057145;28;20227;-84
2022/06/14 13:00:07;;;;;;;;;;;22.40;99.90;;;;;;5077582;28;19928;-81
2022/06/14 13:02:45;;;;;;;;;;;22.20;99.90;;;;;;5090114;28;20344;-83
2022/06/14 13:05:10;;;;;;;;;;;22.10;99.90;;;;;;5038725;28;19982;-82
2022/06/14 13:07:45;;;;;;;;;;;21.80;99.90;;;;;;5089663;28;19924;-82
2022/06/14 13:10:11;;;;;;;;;;;21.50;99.90;;;;;;5057097;28;19974;-82
2022/06/14 13:12:49;;;;;;;;;;;21.40;99.90;;;;;;5091932;28;19960;-82
2022/06/14 13:15:21;;;;;;;;;;;21.30;99.90;;;;;;5057778;28;19920;-82
2022/06/14 13:18:06;;;;;;;;;;;21.20;99.90;;;;;;5041110;28;20054;-82
2022/06/14 13:20:40;;;;;;;;;;;21.30;99.90;;;;;;5074727;28;20058;-82
2022/06/14 13:23:12;;;;;;;;;;;21.80;99.90;;;;;;5073171;28;19920;-83
2022/06/14 13:25:38;;;;;;;;;;;22.40;99.90;;;;;;5054764;28;19931;-82
2022/06/14 13:28:07;;;;;;;;;;;22.80;99.90;;;;;;5055355;28;20016;-83
2022/06/14 13:30:44;;;;;;;;;;;23.20;98.90;;;;;;5055195;28;19920;-82
2022/06/14 13:33:09;;;;;;;;;;;23.60;98.40;;;;;;5068518;28;20470;-85
2022/06/14 13:35:38;;;;;;;;;;;23.60;98.10;;;;;;5092131;28;19920;-83
2022/06/14 13:38:10;;;;;;;;;;;23.90;99.00;;;;;;5075761;28;19970;-83
2022/06/14 13:40:38;;;;;;;;;;;23.90;96.50;;;;;;5076144;28;19920;-83
2022/06/14 13:43:16;;;;;;;;;;;23.90;94.40;;;;;;5092226;28;19920;-83
2022/06/14 13:45:45;;;;;;;;;;;24.30;96.50;;;;;;5092325;28;20267;-82
2022/06/14 13:48:22;;;;;;;;;;;24.40;96.20;;;;;;5058599;28;20530;-88
2022/06/14 13:50:57;;;;;;;;;;;24.20;96.10;;;;;;5091842;28;20394;-82
2022/06/14 13:53:34;;;;;;;;;;;23.30;95.90;;;;;;5074146;28;19931;-82
2022/06/14 13:56:00;;;;;;;;;;;22.90;98.00;;;;;;5075766;28;20387;-81
2022/06/14 13:58:33;;;;;;;;;;;22.90;98.90;;;;;;5082328;28;19927;-82
2022/06/14 14:01:14;;;;;;;;;;;23.40;98.10;;;;;;5039629;28;20321;-82
2022/06/14 14:03:45;;;;;;;;;;;24.00;98.20;;;;;;5039551;28;19974;-84
2022/06/14 14:06:17;;;;;;;;;;;24.70;98.10;;;;;;5075611;28;19924;-83
2022/06/14 14:09:01;;;;;;;;;;;24.90;96.20;;;;;;5088849;28;19930;-83
2022/06/14 14:11:29;;;;;;;;;;;25.10;92.40;;;;;;5054092;28;19928;-82
2022/06/14 14:13:59;;;;;;;;;;;25.00;92.80;;;;;;5055274;28;20373;-83
2022/06/14 14:16:33;;;;;;;;;;;24.90;94.30;;;;;;5070979;28;19931;-79
2022/06/14 14:19:11;;;;;;;;;;;24.50;93.30;;;;;;5104505;28;19920;-79
2022/06/14 14:21:57;;;;;;;;;;;23.80;96.00;;;;;;5089353;28;19931;-79
2022/06/14 14:24:29;;;;;;;;;;;24.40;97.20;;;;;;5074128;28;19927;-83
2022/06/14 14:26:59;;;;;;;;;;;23.90;95.90;;;;;;5066059;28;20007;-83
2022/06/14 14:29:28;;;;;;;;;;;23.70;96.70;;;;;;5055085;28;19925;-83
2022/06/14 14:31:54;;;;;;;;;;;23.90;97.60;;;;;;5087433;28;20368;-83
2022/06/14 14:34:29;;;;;;;;;;;23.30;96.30;;;;;;5074091;28;19931;-83
2022/06/14 14:37:01;;;;;;;;;;;22.60;97.30;;;;;;5057683;28;19920;-83
2022/06/14 14:39:29;;;;;;;;;;;22.10;99.00;;;;;;5073806;28;20011;-83
2022/06/14 14:41:59;;;;;;;;;;;21.80;99.90;;;;;;5073547;28;19975;-83
2022/06/14 14:44:30;;;;;;;;;;;21.60;99.90;;;;;;5073172;28;19943;-83
2022/06/14 14:47:06;;;;;;;;;;;21.40;99.90;;;;;;5072211;28;19924;-83
2022/06/14 14:49:38;;;;;;;;;;;21.30;99.90;;;;;;5084855;28;19974;-84
2022/06/14 14:52:22;;;;;;;;;;;22.10;99.90;;;;;;5071169;28;19924;-84
2022/06/14 14:55:06;;;;;;;;;;;22.50;99.90;;;;;;5073042;28;19931;-84
2022/06/14 14:57:32;;;;;;;;;;;22.80;99.90;;;;;;5055240;28;19924;-84
2022/06/14 15:00:13;;;;;;;;;;;22.50;98.60;;;;;;5055691;28;19977;-84
2022/06/14 15:06:01;;;;;;;;;;;21.70;99.90;;;;;;5107185;28;19924;-83
2022/06/14 15:08:28;;;;;;;;;;;21.40;99.90;;;;;;5106765;28;19928;-84